Time;durP1;ratioP1;P1;durP2;ratioP2;P2;SDS_P1;SDS_P2;PMS_P1;PMS_P2;Temp;Humidity;BMP_temperature;BMP_pressure;BME280_temperature;BME280_humidity;BME280_pressure;Samples;Min_cycle;Max_cycle;Signal;HPM_P1;HPM_P2
2021/08/23 00:02:15;;;;;;;7.43;4.22;;;;;;;;;;6125486;23;20002;-71
2021/08/23 00:04:41;;;;;;;10.35;4.25;;;;;;;;;;6125841;23;19994;-70
2021/08/23 00:07:07;;;;;;;8.48;4.40;;;;;;;;;;6125491;23;20428;-72
2021/08/23 00:09:33;;;;;;;9.10;4.80;;;;;;;;;;6125906;23;20002;-74
2021/08/23 00:12:00;;;;;;;16.08;7.25;;;;;;;;;;6125333;23;19998;-70
2021/08/23 00:14:27;;;;;;;13.18;4.43;;;;;;;;;;6126020;23;20010;-69
2021/08/23 00:16:52;;;;;;;12.93;4.70;;;;;;;;;;6100051;23;20032;-70
2021/08/23 00:19:19;;;;;;;13.45;5.05;;;;;;;;;;6125697;23;20069;-68
2021/08/23 00:21:46;;;;;;;10.10;5.20;;;;;;;;;;6125932;23;20002;-69
2021/08/23 00:24:25;;;;;;;11.70;5.10;;;;;;;;;;6125278;23;20487;-70
2021/08/23 00:26:53;;;;;;;10.65;5.22;;;;;;;;;;6125702;23;20045;-69
2021/08/23 00:29:19;;;;;;;13.00;5.68;;;;;;;;;;6125949;23;20049;-70
2021/08/23 00:31:45;;;;;;;8.95;4.97;;;;;;;;;;6125759;23;19998;-71
2021/08/23 00:34:11;;;;;;;8.35;4.65;;;;;;;;;;6125602;23;19994;-72
2021/08/23 00:36:37;;;;;;;8.02;4.97;;;;;;;;;;6125622;23;19994;-70
2021/08/23 00:39:05;;;;;;;11.48;4.93;;;;;;;;;;6125278;23;19998;-71
2021/08/23 00:41:32;;;;;;;7.93;4.75;;;;;;;;;;6125704;23;20008;-70
2021/08/23 00:43:58;;;;;;;9.90;5.35;;;;;;;;;;6125579;23;20074;-69
2021/08/23 00:46:24;;;;;;;7.57;4.70;;;;;;;;;;6125652;23;19994;-69
2021/08/23 00:48:51;;;;;;;12.07;5.50;;;;;;;;;;6100787;23;20409;-70
2021/08/23 00:51:17;;;;;;;10.50;5.00;;;;;;;;;;6127411;23;20002;-69
2021/08/23 00:53:42;;;;;;;7.45;4.55;;;;;;;;;;6127381;23;20424;-69
2021/08/23 00:56:08;;;;;;;7.78;4.93;;;;;;;;;;6127305;23;20002;-71
2021/08/23 00:58:34;;;;;;;10.57;4.95;;;;;;;;;;6127381;23;20305;-72
2021/08/23 01:01:18;;;;;;;11.25;4.97;;;;;;;;;;6127212;23;20009;-71
2021/08/23 01:03:51;;;;;;;7.35;4.45;;;;;;;;;;6127074;23;20033;-70
2021/08/23 01:06:17;;;;;;;6.68;4.40;;;;;;;;;;6127438;23;20396;-71
2021/08/23 01:08:44;;;;;;;8.15;4.75;;;;;;;;;;6126990;23;20459;-70
2021/08/23 01:11:11;;;;;;;11.13;4.97;;;;;;;;;;6127447;23;20002;-71
2021/08/23 01:13:44;;;;;;;16.38;5.10;;;;;;;;;;6127153;23;20088;-71
2021/08/23 01:16:10;;;;;;;10.77;5.00;;;;;;;;;;6127202;23;20000;-70
2021/08/23 01:18:35;;;;;;;14.65;5.22;;;;;;;;;;6127053;23;19998;-69
2021/08/23 01:21:03;;;;;;;6.57;4.70;;;;;;;;;;6127418;23;20021;-69
2021/08/23 01:23:30;;;;;;;9.10;5.20;;;;;;;;;;6127320;23;19994;-67
2021/08/23 01:25:57;;;;;;;9.75;4.50;;;;;;;;;;6101257;23;20025;-70
2021/08/23 01:28:34;;;;;;;10.57;5.15;;;;;;;;;;6127014;23;20049;-71
2021/08/23 01:31:11;;;;;;;9.95;5.70;;;;;;;;;;6127136;23;20010;-69
2021/08/23 01:33:37;;;;;;;8.65;4.80;;;;;;;;;;6101292;23;20002;-71
2021/08/23 01:36:03;;;;;;;7.68;4.95;;;;;;;;;;6126897;23;20061;-71
2021/08/23 01:38:29;;;;;;;10.07;4.75;;;;;;;;;;6126954;23;20034;-70
2021/08/23 01:41:04;;;;;;;10.55;5.15;;;;;;;;;;6127136;23;20387;-71
2021/08/23 01:43:30;;;;;;;7.85;4.78;;;;;;;;;;6127016;23;20420;-71
2021/08/23 01:45:56;;;;;;;10.63;4.65;;;;;;;;;;6127168;23;20033;-70
2021/08/23 01:48:22;;;;;;;23.63;6.75;;;;;;;;;;6126877;23;20053;-69
2021/08/23 01:50:48;;;;;;;9.43;5.18;;;;;;;;;;6126750;23;20374;-69
2021/08/23 01:53:16;;;;;;;11.35;5.10;;;;;;;;;;6127173;23;20009;-73
2021/08/23 01:55:42;;;;;;;9.02;4.75;;;;;;;;;;6127166;23;20399;-71
2021/08/23 01:58:09;;;;;;;10.05;4.80;;;;;;;;;;6126774;23;20025;-70
2021/08/23 02:00:35;;;;;;;5.95;4.20;;;;;;;;;;6126735;23;20080;-69
2021/08/23 02:03:01;;;;;;;11.35;5.55;;;;;;;;;;6126642;23;20077;-68
2021/08/23 02:05:28;;;;;;;7.78;4.53;;;;;;;;;;6126905;23;20026;-71
2021/08/23 02:07:57;;;;;;;11.20;5.30;;;;;;;;;;6126354;23;20064;-70
2021/08/23 02:10:25;;;;;;;7.65;4.93;;;;;;;;;;6126413;23;20022;-71
2021/08/23 02:12:51;;;;;;;7.18;4.43;;;;;;;;;;6127006;23;20006;-71
2021/08/23 02:15:16;;;;;;;9.63;5.45;;;;;;;;;;6126779;23;20002;-71
2021/08/23 02:17:43;;;;;;;11.02;5.13;;;;;;;;;;6126966;23;20446;-69
2021/08/23 02:20:10;;;;;;;10.23;5.22;;;;;;;;;;6126432;23;20432;-72
2021/08/23 02:22:38;;;;;;;6.60;5.00;;;;;;;;;;6126765;23;19998;-69
2021/08/23 02:25:05;;;;;;;8.75;5.22;;;;;;;;;;6126761;23;20085;-71
2021/08/23 02:27:31;;;;;;;9.98;4.68;;;;;;;;;;6126586;23;20002;-69
2021/08/23 02:29:57;;;;;;;7.15;5.18;;;;;;;;;;6126599;23;20085;-68
2021/08/23 02:32:23;;;;;;;7.57;5.22;;;;;;;;;;6126378;23;19994;-71
2021/08/23 02:34:49;;;;;;;7.43;4.60;;;;;;;;;;6100612;23;20454;-68
2021/08/23 02:37:15;;;;;;;6.65;4.43;;;;;;;;;;6126532;23;20009;-70
2021/08/23 02:39:41;;;;;;;7.80;4.88;;;;;;;;;;6126390;23;20002;-71
2021/08/23 02:42:07;;;;;;;7.47;4.20;;;;;;;;;;6126222;23;20006;-72
2021/08/23 02:44:33;;;;;;;9.77;4.80;;;;;;;;;;6126293;23;19998;-71
2021/08/23 02:46:59;;;;;;;7.50;4.70;;;;;;;;;;6126642;23;20028;-71
2021/08/23 02:49:26;;;;;;;7.82;5.18;;;;;;;;;;6126468;23;19998;-70
2021/08/23 02:51:53;;;;;;;10.80;5.15;;;;;;;;;;6126347;23;20006;-71
2021/08/23 02:54:20;;;;;;;5.95;4.50;;;;;;;;;;6126616;23;20002;-69
2021/08/23 02:56:46;;;;;;;9.57;5.25;;;;;;;;;;6126149;23;19998;-69
2021/08/23 02:59:12;;;;;;;8.07;4.70;;;;;;;;;;6126134;23;20001;-70
2021/08/23 03:01:38;;;;;;;12.30;7.00;;;;;;;;;;6126548;23;20009;-71
2021/08/23 03:04:05;;;;;;;9.75;4.90;;;;;;;;;;6126091;23;20065;-71
2021/08/23 03:06:31;;;;;;;9.95;5.70;;;;;;;;;;6125841;23;19998;-70
2021/08/23 03:08:57;;;;;;;12.45;5.38;;;;;;;;;;6126664;23;20012;-68
2021/08/23 03:11:24;;;;;;;15.88;5.22;;;;;;;;;;6125835;23;20002;-70
2021/08/23 03:13:49;;;;;;;10.70;5.18;;;;;;;;;;6126148;23;20056;-69
2021/08/23 03:16:15;;;;;;;10.20;5.82;;;;;;;;;;6126061;23;20483;-69
2021/08/23 03:18:41;;;;;;;11.63;5.53;;;;;;;;;;6126120;23;20084;-71
2021/08/23 03:21:07;;;;;;;8.20;5.00;;;;;;;;;;6126137;23;20049;-69
2021/08/23 03:23:33;;;;;;;9.65;5.75;;;;;;;;;;6126359;23;20073;-69
2021/08/23 03:26:00;;;;;;;16.27;5.63;;;;;;;;;;6125704;23;20002;-73
2021/08/23 03:28:26;;;;;;;16.60;5.25;;;;;;;;;;6125843;23;20009;-69
2021/08/23 03:30:52;;;;;;;12.77;5.65;;;;;;;;;;6126182;23;20002;-71
2021/08/23 03:33:18;;;;;;;11.60;5.70;;;;;;;;;;6126248;23;20002;-68
2021/08/23 03:35:45;;;;;;;12.15;4.88;;;;;;;;;;6125847;23;20017;-69
2021/08/23 03:38:11;;;;;;;7.60;4.80;;;;;;;;;;6125866;23;20033;-69
2021/08/23 03:40:38;;;;;;;12.32;4.95;;;;;;;;;;6125815;23;20010;-70
2021/08/23 03:43:04;;;;;;;10.20;5.55;;;;;;;;;;6125963;23;20309;-72
2021/08/23 03:45:30;;;;;;;10.77;5.70;;;;;;;;;;6125896;23;20002;-68
2021/08/23 03:47:56;;;;;;;12.82;5.47;;;;;;;;;;6125920;23;20025;-68
2021/08/23 03:50:23;;;;;;;11.52;5.45;;;;;;;;;;6125783;23;20061;-72
2021/08/23 03:52:50;;;;;;;14.65;6.18;;;;;;;;;;6125901;23;20022;-69
2021/08/23 03:55:16;;;;;;;12.30;5.85;;;;;;;;;;6125824;23;20061;-67
2021/08/23 03:57:42;;;;;;;14.70;5.70;;;;;;;;;;6125657;23;20002;-69
2021/08/23 04:00:09;;;;;;;11.90;5.63;;;;;;;;;;6125518;23;20013;-72
2021/08/23 04:02:35;;;;;;;10.77;5.22;;;;;;;;;;6125676;23;20129;-66
2021/08/23 04:05:02;;;;;;;13.30;5.10;;;;;;;;;;6125731;23;20555;-70
2021/08/23 04:07:27;;;;;;;8.05;5.70;;;;;;;;;;6125669;23;20022;-70
2021/08/23 04:09:54;;;;;;;10.27;5.32;;;;;;;;;;6125661;23;20387;-71
2021/08/23 04:12:20;;;;;;;10.57;5.38;;;;;;;;;;6125769;23;20028;-67
2021/08/23 04:14:46;;;;;;;11.10;5.72;;;;;;;;;;6125413;23;20428;-70
2021/08/23 04:17:12;;;;;;;10.73;5.38;;;;;;;;;;6125790;23;20475;-69
2021/08/23 04:19:37;;;;;;;7.22;5.55;;;;;;;;;;6126117;23;20018;-69
2021/08/23 04:22:04;;;;;;;19.48;5.90;;;;;;;;;;6126432;23;20009;-68
2021/08/23 04:24:30;;;;;;;11.73;5.97;;;;;;;;;;6128864;23;20001;-70
2021/08/23 04:26:57;;;;;;;14.70;5.85;;;;;;;;;;6128695;23;19998;-69
2021/08/23 04:29:22;;;;;;;13.52;6.20;;;;;;;;;;6129135;23;19998;-71
2021/08/23 04:31:48;;;;;;;24.00;7.35;;;;;;;;;;6129111;23;20076;-71
2021/08/23 04:34:15;;;;;;;15.32;6.90;;;;;;;;;;6128785;23;20085;-69
2021/08/23 04:36:41;;;;;;;22.63;7.57;;;;;;;;;;6128728;23;20006;-69
2021/08/23 04:39:06;;;;;;;12.85;6.15;;;;;;;;;;6128794;23;20024;-71
2021/08/23 04:41:36;;;;;;;11.75;4.88;;;;;;;;;;6128745;23;20487;-68
2021/08/23 04:44:02;;;;;;;11.95;5.35;;;;;;;;;;6128578;23;20368;-68
2021/08/23 04:46:29;;;;;;;16.15;6.38;;;;;;;;;;6128845;23;20085;-69
2021/08/23 04:48:55;;;;;;;10.38;5.30;;;;;;;;;;6102969;23;20467;-69
2021/08/23 04:51:21;;;;;;;10.38;5.78;;;;;;;;;;6128701;23;20068;-70
2021/08/23 04:53:47;;;;;;;13.80;6.75;;;;;;;;;;6128650;23;20109;-68
2021/08/23 04:56:15;;;;;;;14.57;6.40;;;;;;;;;;6128637;23;20085;-70
2021/08/23 04:58:42;;;;;;;13.60;6.78;;;;;;;;;;6128850;23;20078;-71
2021/08/23 05:01:07;;;;;;;13.73;6.70;;;;;;;;;;6128638;23;20016;-71
2021/08/23 05:03:33;;;;;;;8.90;5.13;;;;;;;;;;6128583;23;20432;-71
2021/08/23 05:06:00;;;;;;;10.50;5.20;;;;;;;;;;6128503;23;20009;-69
2021/08/23 05:08:26;;;;;;;11.15;5.03;;;;;;;;;;6128368;23;20025;-70
2021/08/23 05:10:51;;;;;;;10.20;5.05;;;;;;;;;;6128647;23;20389;-71
2021/08/23 05:13:17;;;;;;;7.47;4.40;;;;;;;;;;6127705;23;20002;-69
2021/08/23 05:15:43;;;;;;;10.93;4.55;;;;;;;;;;6101728;23;20012;-69
2021/08/23 05:18:08;;;;;;;11.57;4.40;;;;;;;;;;6127999;23;20424;-69
2021/08/23 05:20:35;;;;;;;10.88;4.90;;;;;;;;;;6128066;23;20132;-71
2021/08/23 05:23:00;;;;;;;11.77;4.65;;;;;;;;;;6127871;23;20026;-70
2021/08/23 05:25:25;;;;;;;10.63;4.65;;;;;;;;;;6127895;23;20436;-70
2021/08/23 05:27:51;;;;;;;16.80;5.32;;;;;;;;;;6127981;23;20002;-68
2021/08/23 05:30:17;;;;;;;8.43;4.50;;;;;;;;;;6101612;23;20490;-68
2021/08/23 05:32:44;;;;;;;8.55;4.38;;;;;;;;;;6128199;23;20001;-70
2021/08/23 05:35:10;;;;;;;8.27;4.20;;;;;;;;;;6100183;23;20022;-71
2021/08/23 05:37:35;;;;;;;6.53;3.92;;;;;;;;;;6127093;23;20001;-69
2021/08/23 05:40:00;;;;;;;8.40;4.32;;;;;;;;;;6126603;23;20009;-70
2021/08/23 05:42:26;;;;;;;7.78;4.22;;;;;;;;;;6126684;23;20030;-69
2021/08/23 05:44:58;;;;;;;5.32;3.92;;;;;;;;;;6124520;23;20089;-66
2021/08/23 05:47:23;;;;;;;12.35;4.63;;;;;;;;;;6126093;23;20002;-71
2021/08/23 05:49:49;;;;;;;7.50;4.50;;;;;;;;;;6126019;23;20069;-70
2021/08/23 05:52:15;;;;;;;8.13;4.38;;;;;;;;;;6126211;23;20063;-65
2021/08/23 05:54:43;;;;;;;12.23;4.93;;;;;;;;;;6124756;23;20432;-72
2021/08/23 05:57:09;;;;;;;5.87;4.80;;;;;;;;;;6125807;23;20008;-68
2021/08/23 05:59:35;;;;;;;6.95;4.60;;;;;;;;;;6124654;23;20244;-70
2021/08/23 06:02:00;;;;;;;7.70;4.90;;;;;;;;;;6123391;23;20369;-72
2021/08/23 06:04:26;;;;;;;6.70;4.40;;;;;;;;;;6126006;23;20025;-71
2021/08/23 06:06:52;;;;;;;10.27;5.20;;;;;;;;;;6125572;23;20352;-66
2021/08/23 06:09:18;;;;;;;8.65;5.20;;;;;;;;;;6124780;23;20099;-75
2021/08/23 06:11:45;;;;;;;10.82;4.80;;;;;;;;;;6125871;23;20010;-74
2021/08/23 06:14:11;;;;;;;13.20;4.88;;;;;;;;;;6076813;23;19998;-75
2021/08/23 06:16:37;;;;;;;8.00;4.80;;;;;;;;;;6126076;23;20073;-72
2021/08/23 06:19:02;;;;;;;6.80;4.40;;;;;;;;;;6127548;23;20006;-75
2021/08/23 06:21:28;;;;;;;9.07;4.57;;;;;;;;;;6093790;23;20002;-72
2021/08/23 06:23:54;;;;;;;7.47;4.70;;;;;;;;;;6123320;23;20006;-73
2021/08/23 06:26:20;;;;;;;8.55;4.55;;;;;;;;;;6125178;23;20006;-72
2021/08/23 06:28:46;;;;;;;5.90;4.13;;;;;;;;;;6125736;23;20088;-68
2021/08/23 06:31:11;;;;;;;7.53;4.60;;;;;;;;;;6125859;23;20006;-68
2021/08/23 06:33:37;;;;;;;8.40;4.40;;;;;;;;;;6126596;23;20002;-77
2021/08/23 06:36:02;;;;;;;6.13;4.13;;;;;;;;;;6126362;23;19998;-71
2021/08/23 06:38:27;;;;;;;12.40;4.45;;;;;;;;;;6125838;23;20476;-67
2021/08/23 06:40:54;;;;;;;5.47;3.80;;;;;;;;;;6126115;23;20044;-69
2021/08/23 06:43:20;;;;;;;7.22;4.10;;;;;;;;;;6126711;23;19994;-67
2021/08/23 06:45:46;;;;;;;8.00;4.00;;;;;;;;;;6125982;23;20002;-75
2021/08/23 06:48:11;;;;;;;5.60;4.15;;;;;;;;;;6126417;23;20001;-71
2021/08/23 06:50:37;;;;;;;8.07;4.75;;;;;;;;;;6126068;23;20320;-71
2021/08/23 06:53:05;;;;;;;12.35;5.35;;;;;;;;;;6124658;23;19994;-72
2021/08/23 06:55:32;;;;;;;10.80;5.00;;;;;;;;;;6126691;23;20061;-70
2021/08/23 06:57:58;;;;;;;11.05;4.63;;;;;;;;;;6126201;23;20004;-72
2021/08/23 07:00:24;;;;;;;8.32;4.10;;;;;;;;;;6125703;23;20022;-72
2021/08/23 07:02:50;;;;;;;6.20;4.45;;;;;;;;;;6126423;23;19997;-79
2021/08/23 07:05:16;;;;;;;7.57;4.47;;;;;;;;;;6127006;23;20002;-72
2021/08/23 07:07:43;;;;;;;7.65;4.07;;;;;;;;;;6095071;23;20440;-75
2021/08/23 07:10:12;;;;;;;11.68;5.63;;;;;;;;;;6096995;23;19998;-72
2021/08/23 07:12:42;;;;;;;15.02;4.97;;;;;;;;;;6097065;23;20448;-71
2021/08/23 07:15:08;;;;;;;6.57;4.60;;;;;;;;;;6097169;23;20025;-69
2021/08/23 07:17:33;;;;;;;7.55;4.63;;;;;;;;;;6097694;23;20021;-76
2021/08/23 07:19:59;;;;;;;10.80;4.68;;;;;;;;;;6094907;23;20062;-68
2021/08/23 07:22:25;;;;;;;9.48;4.78;;;;;;;;;;6096501;23;20007;-72
2021/08/23 07:24:52;;;;;;;9.13;4.72;;;;;;;;;;6096796;23;19998;-68
2021/08/23 07:27:17;;;;;;;5.72;4.05;;;;;;;;;;6097138;23;20054;-67
2021/08/23 07:29:43;;;;;;;12.57;4.70;;;;;;;;;;6096222;23;20002;-66
2021/08/23 07:32:09;;;;;;;9.93;4.97;;;;;;;;;;6096362;23;20077;-66
2021/08/23 07:34:35;;;;;;;9.13;4.80;;;;;;;;;;6096758;23;20002;-64
2021/08/23 07:37:01;;;;;;;8.27;4.80;;;;;;;;;;6095836;23;20002;-66
2021/08/23 07:39:26;;;;;;;6.82;4.90;;;;;;;;;;6096496;23;20133;-66
2021/08/23 07:41:52;;;;;;;13.73;5.05;;;;;;;;;;6096593;23;20098;-69
2021/08/23 07:44:18;;;;;;;10.25;5.10;;;;;;;;;;6095909;23;20008;-67
2021/08/23 07:46:43;;;;;;;10.70;5.00;;;;;;;;;;6096326;23;20061;-70
2021/08/23 07:49:09;;;;;;;11.95;4.50;;;;;;;;;;6095928;23;19998;-72
2021/08/23 07:51:34;;;;;;;8.40;3.95;;;;;;;;;;6093910;23;20011;-71
2021/08/23 07:54:01;;;;;;;10.13;4.25;;;;;;;;;;6095286;23;20022;-71
2021/08/23 07:56:29;;;;;;;8.52;4.32;;;;;;;;;;6096414;23;20022;-67
2021/08/23 07:58:56;;;;;;;8.45;4.78;;;;;;;;;;6095954;23;19998;-67
2021/08/23 08:01:22;;;;;;;8.18;4.35;;;;;;;;;;6094533;23;20018;-77
2021/08/23 08:03:48;;;;;;;11.45;4.40;;;;;;;;;;6095729;23;20002;-71
2021/08/23 08:06:14;;;;;;;7.70;4.60;;;;;;;;;;6095051;23;20033;-73
2021/08/23 08:08:39;;;;;;;9.00;4.45;;;;;;;;;;6094636;23;20378;-73
2021/08/23 08:11:05;;;;;;;4.97;3.95;;;;;;;;;;6096255;23;20006;-72
2021/08/23 08:13:30;;;;;;;9.18;4.05;;;;;;;;;;6095908;23;20026;-72
2021/08/23 08:15:55;;;;;;;7.40;4.03;;;;;;;;;;6096082;23;20021;-72
2021/08/23 08:18:21;;;;;;;5.38;4.07;;;;;;;;;;6095907;23;20002;-64
2021/08/23 08:20:46;;;;;;;9.25;4.07;;;;;;;;;;6095006;23;20010;-78
2021/08/23 08:23:12;;;;;;;6.03;4.00;;;;;;;;;;6096569;23;19998;-77
2021/08/23 08:25:37;;;;;;;6.55;4.00;;;;;;;;;;6096903;23;20009;-67
2021/08/23 08:28:03;;;;;;;5.90;3.63;;;;;;;;;;6095199;23;20354;-66
2021/08/23 08:30:31;;;;;;;5.97;3.65;;;;;;;;;;6096023;23;19999;-67
2021/08/23 08:32:57;;;;;;;5.28;3.35;;;;;;;;;;6093869;23;20320;-65
2021/08/23 08:35:23;;;;;;;5.35;3.50;;;;;;;;;;6095796;23;19994;-67
2021/08/23 08:37:49;;;;;;;5.57;3.58;;;;;;;;;;6095692;23;20380;-71
2021/08/23 08:40:14;;;;;;;4.50;3.40;;;;;;;;;;6095483;23;20041;-72
2021/08/23 08:42:41;;;;;;;5.05;3.60;;;;;;;;;;6095410;23;20002;-71
2021/08/23 08:45:06;;;;;;;8.32;3.58;;;;;;;;;;6095607;23;20029;-71
2021/08/23 08:47:34;;;;;;;6.20;3.45;;;;;;;;;;6095974;23;20022;-73
2021/08/23 08:49:59;;;;;;;5.65;3.60;;;;;;;;;;6095229;23;20002;-75
2021/08/23 08:52:25;;;;;;;3.90;3.20;;;;;;;;;;6095965;23;20081;-71
2021/08/23 08:54:51;;;;;;;5.70;3.50;;;;;;;;;;6096490;23;20420;-71
2021/08/23 08:57:16;;;;;;;5.18;3.72;;;;;;;;;;6095512;23;20077;-73
2021/08/23 08:59:42;;;;;;;4.80;3.70;;;;;;;;;;6095425;23;20025;-73
2021/08/23 09:02:07;;;;;;;7.57;3.42;;;;;;;;;;6096047;23;20006;-74
2021/08/23 09:04:37;;;;;;;5.63;3.50;;;;;;;;;;6092537;23;20003;-74
2021/08/23 09:07:04;;;;;;;4.00;3.08;;;;;;;;;;6103120;23;20044;-74
2021/08/23 09:09:30;;;;;;;4.30;3.70;;;;;;;;;;6125983;23;20416;-71
2021/08/23 09:11:59;;;;;;;6.93;3.35;;;;;;;;;;6126810;23;20107;-72
2021/08/23 09:14:25;;;;;;;4.78;3.10;;;;;;;;;;6094971;23;20448;-71
2021/08/23 09:16:52;;;;;;;5.60;3.53;;;;;;;;;;6119252;23;20014;-72
2021/08/23 09:19:24;;;;;;;6.78;3.55;;;;;;;;;;6127248;23;20001;-74
2021/08/23 09:21:57;;;;;;;3.65;3.30;;;;;;;;;;6126896;23;20037;-72
2021/08/23 09:24:23;;;;;;;9.90;3.28;;;;;;;;;;6126166;23;19997;-70
2021/08/23 09:26:48;;;;;;;4.63;3.40;;;;;;;;;;6126562;23;20408;-69
2021/08/23 09:29:13;;;;;;;7.90;3.35;;;;;;;;;;6126848;23;20005;-72
2021/08/23 09:31:40;;;;;;;7.28;3.85;;;;;;;;;;6125904;23;20002;-73
2021/08/23 09:34:06;;;;;;;12.55;3.42;;;;;;;;;;6126145;23;20343;-72
2021/08/23 09:36:32;;;;;;;4.45;3.17;;;;;;;;;;6093873;23;20123;-70
2021/08/23 09:38:59;;;;;;;3.90;3.28;;;;;;;;;;6123585;23;20385;-72
2021/08/23 09:41:25;;;;;;;3.23;2.90;;;;;;;;;;6125902;23;20387;-73
2021/08/23 09:43:58;;;;;;;6.13;3.70;;;;;;;;;;6126124;23;19998;-73
2021/08/23 09:46:24;;;;;;;4.13;3.08;;;;;;;;;;6125740;23;20417;-74
2021/08/23 09:48:51;;;;;;;6.55;3.50;;;;;;;;;;6126829;23;19994;-76
2021/08/23 09:51:24;;;;;;;7.38;3.47;;;;;;;;;;6126838;23;20481;-73
2021/08/23 09:53:49;;;;;;;4.63;3.03;;;;;;;;;;6126908;23;20057;-73
2021/08/23 09:56:14;;;;;;;4.82;3.40;;;;;;;;;;6125408;23;20006;-72
2021/08/23 09:58:40;;;;;;;5.22;3.28;;;;;;;;;;6126505;23;20002;-74
2021/08/23 10:01:05;;;;;;;5.47;3.15;;;;;;;;;;6126267;23;20005;-73
2021/08/23 10:03:31;;;;;;;4.43;3.17;;;;;;;;;;6100314;23;20009;-73
2021/08/23 10:05:57;;;;;;;3.88;3.15;;;;;;;;;;6126084;23;20073;-72
2021/08/23 10:08:24;;;;;;;3.63;3.20;;;;;;;;;;6125815;23;20026;-76
2021/08/23 10:10:50;;;;;;;4.18;3.13;;;;;;;;;;6100105;23;19998;-73
2021/08/23 10:13:16;;;;;;;3.80;3.17;;;;;;;;;;6126692;23;20360;-74
2021/08/23 10:15:41;;;;;;;6.97;3.40;;;;;;;;;;6126133;23;20006;-75
2021/08/23 10:18:08;;;;;;;7.22;3.03;;;;;;;;;;6126180;23;20029;-75
2021/08/23 10:20:35;;;;;;;5.82;3.20;;;;;;;;;;6125685;23;20010;-74
2021/08/23 10:23:01;;;;;;;3.90;3.03;;;;;;;;;;6126507;23;20053;-73
2021/08/23 10:25:26;;;;;;;10.75;3.40;;;;;;;;;;6100539;23;20004;-74
2021/08/23 10:28:02;;;;;;;8.98;3.40;;;;;;;;;;6126234;23;20010;-71
2021/08/23 10:30:37;;;;;;;4.68;3.03;;;;;;;;;;6122965;23;20004;-69
2021/08/23 10:33:10;;;;;;;3.58;3.15;;;;;;;;;;6124510;23;20027;-74
2021/08/23 10:35:44;;;;;;;5.05;3.55;;;;;;;;;;6124097;23;20060;-71
2021/08/23 10:38:14;;;;;;;5.28;3.03;;;;;;;;;;6125392;23;20002;-72
2021/08/23 10:40:40;;;;;;;4.10;2.92;;;;;;;;;;6124885;23;20012;-71
2021/08/23 10:43:15;;;;;;;5.93;3.03;;;;;;;;;;6125189;23;20002;-71
2021/08/23 10:45:41;;;;;;;4.63;2.75;;;;;;;;;;6125166;23;20008;-72
2021/08/23 10:48:14;;;;;;;5.15;3.22;;;;;;;;;;6125546;23;20458;-72
2021/08/23 10:50:39;;;;;;;4.40;2.67;;;;;;;;;;6125733;23;20427;-72
2021/08/23 10:53:12;;;;;;;5.88;2.90;;;;;;;;;;6126013;23;20001;-73
2021/08/23 10:55:38;;;;;;;4.53;2.83;;;;;;;;;;6125465;23;20338;-71
2021/08/23 10:58:04;;;;;;;4.10;2.80;;;;;;;;;;6125977;23;20022;-72
2021/08/23 11:00:37;;;;;;;3.92;3.33;;;;;;;;;;6123904;23;20331;-72
2021/08/23 11:03:03;;;;;;;4.60;3.03;;;;;;;;;;6124944;23;20005;-70
2021/08/23 11:05:28;;;;;;;5.90;2.80;;;;;;;;;;6125562;23;19998;-70
2021/08/23 11:08:07;;;;;;;5.05;3.08;;;;;;;;;;6124714;23;20093;-70
2021/08/23 11:10:34;;;;;;;;;;;;;;;;;;6124936;23;19998;-70
2021/08/23 11:13:09;;;;;;;3.50;3.05;;;;;;;;;;6124790;23;19905;-70
2021/08/23 11:15:34;;;;;;;6.45;3.30;;;;;;;;;;6125339;23;20468;-70
2021/08/23 11:18:04;;;;;;;3.30;2.92;;;;;;;;;;6124671;23;19993;-70
2021/08/23 11:20:34;;;;;;;3.03;2.65;;;;;;;;;;6125431;23;20406;-70
2021/08/23 11:23:00;;;;;;;4.05;2.53;;;;;;;;;;6125643;23;20085;-70
2021/08/23 11:25:30;;;;;;;11.30;2.70;;;;;;;;;;6123597;23;20066;-70
2021/08/23 11:27:56;;;;;;;5.40;3.05;;;;;;;;;;6125054;23;20006;-70
2021/08/23 11:30:29;;;;;;;4.65;2.30;;;;;;;;;;6123875;23;20059;-71
2021/08/23 11:32:54;;;;;;;4.38;2.60;;;;;;;;;;6124134;23;19998;-70
2021/08/23 11:35:20;;;;;;;2.42;2.22;;;;;;;;;;6125413;23;20072;-70
2021/08/23 11:37:53;;;;;;;4.50;2.70;;;;;;;;;;6125043;23;20006;-72
2021/08/23 11:40:18;;;;;;;4.00;2.63;;;;;;;;;;6124315;23;20010;-70
2021/08/23 11:42:43;;;;;;;4.47;2.90;;;;;;;;;;6123772;23;19998;-70
2021/08/23 11:45:09;;;;;;;3.97;2.40;;;;;;;;;;6124570;23;20045;-70
2021/08/23 11:47:35;;;;;;;8.52;3.13;;;;;;;;;;6125090;23;20030;-69
2021/08/23 11:50:01;;;;;;;3.28;2.58;;;;;;;;;;6124671;23;20412;-69
2021/08/23 11:52:26;;;;;;;2.70;2.42;;;;;;;;;;6098303;23;19998;-69
2021/08/23 11:54:54;;;;;;;3.35;2.60;;;;;;;;;;6122841;23;20060;-69
2021/08/23 11:57:20;;;;;;;4.13;2.63;;;;;;;;;;6093642;23;20002;-70
2021/08/23 11:59:53;;;;;;;3.92;2.70;;;;;;;;;;6122775;23;20364;-70
2021/08/23 12:02:24;;;;;;;3.47;2.60;;;;;;;;;;6092148;23;20010;-69
2021/08/23 12:04:50;;;;;;;4.18;3.05;;;;;;;;;;6088501;23;19998;-71
2021/08/23 12:07:15;;;;;;;8.02;2.88;;;;;;;;;;6124141;23;20014;-71
2021/08/23 12:09:41;;;;;;;5.70;2.63;;;;;;;;;;6123598;23;19998;-70
2021/08/23 12:12:06;;;;;;;7.65;2.33;;;;;;;;;;6125233;23;19998;-69
2021/08/23 12:14:31;;;;;;;7.15;2.67;;;;;;;;;;6124007;23;19998;-70
2021/08/23 12:17:05;;;;;;;3.33;2.15;;;;;;;;;;6124864;23;20037;-72
2021/08/23 12:19:30;;;;;;;6.15;2.50;;;;;;;;;;6125025;23;19998;-70
2021/08/23 12:22:03;;;;;;;6.25;2.53;;;;;;;;;;6124377;23;20006;-72
2021/08/23 12:24:28;;;;;;;5.45;2.30;;;;;;;;;;6100290;23;20006;-71
2021/08/23 12:26:55;;;;;;;7.65;2.40;;;;;;;;;;6125665;23;20324;-71
2021/08/23 12:29:23;;;;;;;4.82;2.65;;;;;;;;;;6125166;23;20427;-71
2021/08/23 12:31:53;;;;;;;4.85;2.65;;;;;;;;;;6125350;23;19998;-71
2021/08/23 12:34:20;;;;;;;2.92;2.35;;;;;;;;;;6125327;23;20017;-71
2021/08/23 12:36:46;;;;;;;3.15;2.35;;;;;;;;;;6125753;23;20328;-70
2021/08/23 12:39:12;;;;;;;5.78;2.20;;;;;;;;;;6124916;23;20097;-69
2021/08/23 12:41:38;;;;;;;6.32;2.30;;;;;;;;;;6125067;23;20065;-70
2021/08/23 12:44:04;;;;;;;5.35;2.28;;;;;;;;;;6125335;23;20026;-72
2021/08/23 12:46:29;;;;;;;2.60;2.15;;;;;;;;;;6127053;23;20427;-70
2021/08/23 12:48:55;;;;;;;2.50;2.15;;;;;;;;;;6125637;23;20012;-70
2021/08/23 12:51:20;;;;;;;5.60;2.15;;;;;;;;;;6126972;23;20005;-68
2021/08/23 12:53:48;;;;;;;5.00;2.13;;;;;;;;;;6127099;23;19998;-69
2021/08/23 12:56:13;;;;;;;3.85;2.40;;;;;;;;;;6125088;23;20025;-69
2021/08/23 12:58:39;;;;;;;4.28;2.00;;;;;;;;;;6123284;23;20005;-69
2021/08/23 13:01:04;;;;;;;2.88;2.20;;;;;;;;;;6126538;23;20413;-69
2021/08/23 13:03:31;;;;;;;4.85;2.10;;;;;;;;;;6126378;23;20444;-69
2021/08/23 13:05:57;;;;;;;2.70;2.13;;;;;;;;;;6125496;23;20133;-70
2021/08/23 13:08:22;;;;;;;3.67;2.15;;;;;;;;;;6125045;23;20583;-69
2021/08/23 13:10:48;;;;;;;7.18;2.58;;;;;;;;;;6100722;23;20005;-69
2021/08/23 13:13:14;;;;;;;2.72;2.45;;;;;;;;;;6126027;23;20041;-69
2021/08/23 13:15:40;;;;;;;4.10;2.30;;;;;;;;;;6126913;23;20053;-70
2021/08/23 13:18:06;;;;;;;4.30;2.30;;;;;;;;;;6125798;23;20432;-69
2021/08/23 13:20:31;;;;;;;2.33;2.13;;;;;;;;;;6126242;23;20384;-69
2021/08/23 13:22:56;;;;;;;8.55;2.60;;;;;;;;;;6126548;23;20431;-69
2021/08/23 13:25:22;;;;;;;4.32;2.30;;;;;;;;;;6126136;23;20010;-69
2021/08/23 13:27:47;;;;;;;4.85;2.80;;;;;;;;;;6125704;23;20021;-69
2021/08/23 13:30:13;;;;;;;6.63;2.30;;;;;;;;;;6126070;23;20408;-69
2021/08/23 13:32:39;;;;;;;2.67;2.28;;;;;;;;;;6125754;23;20049;-69
2021/08/23 13:35:04;;;;;;;4.45;2.17;;;;;;;;;;6124760;23;20002;-69
2021/08/23 13:37:30;;;;;;;4.70;2.30;;;;;;;;;;6125889;23;20005;-69
2021/08/23 13:39:55;;;;;;;3.85;2.53;;;;;;;;;;6126068;23;20018;-69
2021/08/23 13:42:21;;;;;;;2.53;2.03;;;;;;;;;;6123868;23;20010;-69
2021/08/23 13:44:46;;;;;;;2.80;2.33;;;;;;;;;;6126777;23;20113;-70
2021/08/23 13:47:12;;;;;;;3.70;2.28;;;;;;;;;;6126221;23;20335;-70
2021/08/23 13:49:38;;;;;;;3.00;1.98;;;;;;;;;;6126428;23;20008;-69
2021/08/23 13:52:03;;;;;;;6.32;2.08;;;;;;;;;;6125848;23;19997;-70
2021/08/23 13:54:29;;;;;;;6.80;1.88;;;;;;;;;;6126316;23;19998;-71
2021/08/23 13:56:54;;;;;;;4.55;1.95;;;;;;;;;;6125724;23;20037;-71
2021/08/23 13:59:20;;;;;;;2.35;1.70;;;;;;;;;;6126329;23;20001;-70
2021/08/23 14:01:45;;;;;;;2.40;2.17;;;;;;;;;;6126103;23;20133;-70
2021/08/23 14:04:11;;;;;;;2.90;1.80;;;;;;;;;;6126027;23;19997;-71
2021/08/23 14:06:36;;;;;;;3.35;1.95;;;;;;;;;;6125537;23;20005;-71
2021/08/23 14:09:03;;;;;;;3.70;1.95;;;;;;;;;;6126119;23;20084;-69
2021/08/23 14:11:28;;;;;;;5.10;2.28;;;;;;;;;;6126542;23;20016;-70
2021/08/23 14:13:57;;;;;;;5.78;1.73;;;;;;;;;;6125269;23;20452;-71
2021/08/23 14:16:22;;;;;;;2.63;1.80;;;;;;;;;;6126150;23;20436;-70
2021/08/23 14:18:48;;;;;;;3.85;2.10;;;;;;;;;;6100423;23;20030;-72
2021/08/23 14:21:19;;;;;;;2.47;1.90;;;;;;;;;;6124066;23;20424;-72
2021/08/23 14:23:44;;;;;;;2.55;2.10;;;;;;;;;;6125476;23;20334;-71
2021/08/23 14:26:10;;;;;;;6.68;2.60;;;;;;;;;;6124689;23;20021;-71
2021/08/23 14:28:35;;;;;;;3.03;2.10;;;;;;;;;;6126229;23;20033;-70
2021/08/23 14:31:00;;;;;;;7.53;2.13;;;;;;;;;;6124795;23;20419;-69
2021/08/23 14:33:26;;;;;;;3.75;1.70;;;;;;;;;;6126138;23;20045;-69
2021/08/23 14:35:53;;;;;;;5.95;2.10;;;;;;;;;;6125983;23;19998;-70
2021/08/23 14:38:18;;;;;;;5.18;1.70;;;;;;;;;;6125870;23;20063;-69